sensor_id;sensor_type;location;lat;lon;timestamp;P1;durP1;ratioP1;P2;durP2;ratioP2
32096;SDS011;18610;49.916;8.284;2023-04-28T00:00:31;15.07;;;6.72;;
32096;SDS011;18610;49.916;8.284;2023-04-28T00:02:58;11.38;;;6.53;;
32096;SDS011;18610;49.916;8.284;2023-04-28T00:05:24;16.10;;;6.63;;
32096;SDS011;18610;49.916;8.284;2023-04-28T00:07:51;14.45;;;6.88;;
32096;SDS011;18610;49.916;8.284;2023-04-28T00:10:18;21.40;;;6.95;;
32096;SDS011;18610;49.916;8.284;2023-04-28T00:12:46;11.45;;;6.32;;
32096;SDS011;18610;49.916;8.284;2023-04-28T00:15:13;14.02;;;6.82;;
32096;SDS011;18610;49.916;8.284;2023-04-28T00:17:40;11.18;;;6.60;;
32096;SDS011;18610;49.916;8.284;2023-04-28T00:20:07;15.75;;;6.10;;
32096;SDS011;18610;49.916;8.284;2023-04-28T00:22:35;12.75;;;5.93;;
32096;SDS011;18610;49.916;8.284;2023-04-28T00:25:02;15.20;;;6.43;;
32096;SDS011;18610;49.916;8.284;2023-04-28T00:27:29;18.98;;;6.28;;
32096;SDS011;18610;49.916;8.284;2023-04-28T00:29:58;17.02;;;6.47;;
32096;SDS011;18610;49.916;8.284;2023-04-28T00:32:25;10.82;;;5.38;;
32096;SDS011;18610;49.916;8.284;2023-04-28T00:34:52;11.02;;;6.32;;
32096;SDS011;18610;49.916;8.284;2023-04-28T00:37:19;15.23;;;5.85;;
32096;SDS011;18610;49.916;8.284;2023-04-28T00:39:46;18.92;;;6.53;;
32096;SDS011;18610;49.916;8.284;2023-04-28T00:42:13;12.50;;;6.80;;
32096;SDS011;18610;49.916;8.284;2023-04-28T00:44:40;9.25;;;5.57;;
32096;SDS011;18610;49.916;8.284;2023-04-28T00:47:08;12.45;;;6.70;;
32096;SDS011;18610;49.916;8.284;2023-04-28T00:49:38;14.35;;;6.72;;
32096;SDS011;18610;49.916;8.284;2023-04-28T00:52:05;14.02;;;7.63;;
32096;SDS011;18610;49.916;8.284;2023-04-28T00:54:32;13.93;;;7.10;;
32096;SDS011;18610;49.916;8.284;2023-04-28T00:57:00;15.25;;;6.13;;
32096;SDS011;18610;49.916;8.284;2023-04-28T00:59:28;15.38;;;6.55;;
32096;SDS011;18610;49.916;8.284;2023-04-28T01:01:55;17.02;;;6.32;;
32096;SDS011;18610;49.916;8.284;2023-04-28T01:04:23;14.30;;;6.05;;
32096;SDS011;18610;49.916;8.284;2023-04-28T01:06:51;8.95;;;6.30;;
32096;SDS011;18610;49.916;8.284;2023-04-28T01:09:20;10.35;;;5.78;;
32096;SDS011;18610;49.916;8.284;2023-04-28T01:11:47;16.35;;;6.40;;
32096;SDS011;18610;49.916;8.284;2023-04-28T01:14:14;15.05;;;6.80;;
32096;SDS011;18610;49.916;8.284;2023-04-28T01:16:41;11.82;;;6.18;;
32096;SDS011;18610;49.916;8.284;2023-04-28T01:19:09;12.95;;;5.72;;
32096;SDS011;18610;49.916;8.284;2023-04-28T01:21:42;10.00;;;5.60;;
32096;SDS011;18610;49.916;8.284;2023-04-28T01:24:10;18.05;;;5.63;;
32096;SDS011;18610;49.916;8.284;2023-04-28T01:26:37;12.88;;;5.93;;
32096;SDS011;18610;49.916;8.284;2023-04-28T01:29:03;13.00;;;5.80;;
32096;SDS011;18610;49.916;8.284;2023-04-28T01:31:30;10.63;;;5.38;;
32096;SDS011;18610;49.916;8.284;2023-04-28T01:33:57;16.30;;;6.43;;
32096;SDS011;18610;49.916;8.284;2023-04-28T01:36:24;12.48;;;5.78;;
32096;SDS011;18610;49.916;8.284;2023-04-28T01:38:52;16.10;;;5.97;;
32096;SDS011;18610;49.916;8.284;2023-04-28T01:41:20;13.57;;;6.35;;
32096;SDS011;18610;49.916;8.284;2023-04-28T01:43:47;15.68;;;6.50;;
32096;SDS011;18610;49.916;8.284;2023-04-28T01:46:14;17.10;;;6.72;;
32096;SDS011;18610;49.916;8.284;2023-04-28T01:48:41;8.63;;;5.60;;
32096;SDS011;18610;49.916;8.284;2023-04-28T01:51:08;13.77;;;6.28;;
32096;SDS011;18610;49.916;8.284;2023-04-28T01:53:35;13.95;;;6.13;;
32096;SDS011;18610;49.916;8.284;2023-04-28T01:56:01;10.85;;;5.72;;
32096;SDS011;18610;49.916;8.284;2023-04-28T01:58:30;8.30;;;5.72;;
32096;SDS011;18610;49.916;8.284;2023-04-28T02:00:57;14.43;;;6.88;;
32096;SDS011;18610;49.916;8.284;2023-04-28T02:03:27;14.40;;;7.03;;
32096;SDS011;18610;49.916;8.284;2023-04-28T02:05:53;14.82;;;6.72;;
32096;SDS011;18610;49.916;8.284;2023-04-28T02:08:20;16.33;;;6.63;;
32096;SDS011;18610;49.916;8.284;2023-04-28T02:10:47;13.05;;;6.43;;
32096;SDS011;18610;49.916;8.284;2023-04-28T02:13:13;15.88;;;6.35;;
32096;SDS011;18610;49.916;8.284;2023-04-28T02:15:42;13.23;;;6.50;;
32096;SDS011;18610;49.916;8.284;2023-04-28T02:18:09;13.77;;;7.07;;
32096;SDS011;18610;49.916;8.284;2023-04-28T02:20:36;10.80;;;5.78;;
32096;SDS011;18610;49.916;8.284;2023-04-28T02:23:02;14.15;;;6.75;;
32096;SDS011;18610;49.916;8.284;2023-04-28T02:25:29;12.52;;;6.53;;
32096;SDS011;18610;49.916;8.284;2023-04-28T02:27:56;9.98;;;6.07;;
32096;SDS011;18610;49.916;8.284;2023-04-28T02:30:23;14.63;;;6.18;;
32096;SDS011;18610;49.916;8.284;2023-04-28T02:32:51;12.93;;;6.38;;
32096;SDS011;18610;49.916;8.284;2023-04-28T02:35:18;16.95;;;6.32;;
32096;SDS011;18610;49.916;8.284;2023-04-28T02:37:45;9.73;;;6.40;;
32096;SDS011;18610;49.916;8.284;2023-04-28T02:40:12;14.95;;;7.05;;
32096;SDS011;18610;49.916;8.284;2023-04-28T02:42:38;13.70;;;6.63;;
32096;SDS011;18610;49.916;8.284;2023-04-28T02:45:05;8.73;;;6.18;;
32096;SDS011;18610;49.916;8.284;2023-04-28T02:47:33;16.98;;;6.28;;
32096;SDS011;18610;49.916;8.284;2023-04-28T02:50:01;15.13;;;6.05;;
32096;SDS011;18610;49.916;8.284;2023-04-28T02:52:27;10.73;;;6.57;;
32096;SDS011;18610;49.916;8.284;2023-04-28T02:54:54;15.73;;;6.60;;
32096;SDS011;18610;49.916;8.284;2023-04-28T02:57:21;10.65;;;6.00;;
32096;SDS011;18610;49.916;8.284;2023-04-28T02:59:48;17.42;;;6.43;;
32096;SDS011;18610;49.916;8.284;2023-04-28T03:02:15;11.95;;;6.32;;
32096;SDS011;18610;49.916;8.284;2023-04-28T03:04:44;10.77;;;6.00;;
32096;SDS011;18610;49.916;8.284;2023-04-28T03:07:12;12.93;;;6.53;;
32096;SDS011;18610;49.916;8.284;2023-04-28T03:09:39;12.90;;;6.47;;
32096;SDS011;18610;49.916;8.284;2023-04-28T03:12:05;13.40;;;6.88;;
32096;SDS011;18610;49.916;8.284;2023-04-28T03:14:32;14.73;;;7.15;;
32096;SDS011;18610;49.916;8.284;2023-04-28T03:16:59;15.55;;;6.35;;
32096;SDS011;18610;49.916;8.284;2023-04-28T03:19:26;17.98;;;8.35;;
32096;SDS011;18610;49.916;8.284;2023-04-28T03:21:52;13.13;;;7.25;;
32096;SDS011;18610;49.916;8.284;2023-04-28T03:24:21;14.25;;;6.72;;
32096;SDS011;18610;49.916;8.284;2023-04-28T03:26:47;12.88;;;7.68;;
32096;SDS011;18610;49.916;8.284;2023-04-28T03:29:14;16.50;;;7.15;;
32096;SDS011;18610;49.916;8.284;2023-04-28T03:31:41;11.13;;;7.00;;
32096;SDS011;18610;49.916;8.284;2023-04-28T03:34:08;13.38;;;6.90;;
32096;SDS011;18610;49.916;8.284;2023-04-28T03:36:34;14.57;;;6.65;;
32096;SDS011;18610;49.916;8.284;2023-04-28T03:39:01;20.10;;;8.23;;
32096;SDS011;18610;49.916;8.284;2023-04-28T03:41:29;13.40;;;7.07;;
32096;SDS011;18610;49.916;8.284;2023-04-28T03:43:56;13.57;;;6.82;;
32096;SDS011;18610;49.916;8.284;2023-04-28T03:46:23;15.98;;;7.00;;
32096;SDS011;18610;49.916;8.284;2023-04-28T03:48:49;9.77;;;5.93;;
32096;SDS011;18610;49.916;8.284;2023-04-28T03:51:17;18.63;;;7.32;;
32096;SDS011;18610;49.916;8.284;2023-04-28T03:53:44;17.13;;;7.93;;
32096;SDS011;18610;49.916;8.284;2023-04-28T03:56:10;13.65;;;8.18;;
32096;SDS011;18610;49.916;8.284;2023-04-28T03:58:38;12.68;;;7.55;;
32096;SDS011;18610;49.916;8.284;2023-04-28T04:01:05;15.30;;;8.00;;
32096;SDS011;18610;49.916;8.284;2023-04-28T04:03:32;10.77;;;7.25;;
32096;SDS011;18610;49.916;8.284;2023-04-28T04:05:59;11.52;;;7.25;;
32096;SDS011;18610;49.916;8.284;2023-04-28T04:08:25;17.10;;;8.02;;
32096;SDS011;18610;49.916;8.284;2023-04-28T04:10:52;15.07;;;8.18;;
32096;SDS011;18610;49.916;8.284;2023-04-28T04:13:20;13.55;;;7.30;;
32096;SDS011;18610;49.916;8.284;2023-04-28T04:15:48;15.32;;;7.43;;
32096;SDS011;18610;49.916;8.284;2023-04-28T04:18:16;9.98;;;7.13;;
32096;SDS011;18610;49.916;8.284;2023-04-28T04:20:43;11.65;;;7.25;;
32096;SDS011;18610;49.916;8.284;2023-04-28T04:23:10;16.83;;;7.88;;
32096;SDS011;18610;49.916;8.284;2023-04-28T04:25:37;16.90;;;7.15;;
32096;SDS011;18610;49.916;8.284;2023-04-28T04:28:03;14.18;;;7.95;;
32096;SDS011;18610;49.916;8.284;2023-04-28T04:30:30;17.08;;;8.23;;
32096;SDS011;18610;49.916;8.284;2023-04-28T04:32:58;18.00;;;8.55;;
32096;SDS011;18610;49.916;8.284;2023-04-28T04:35:25;12.10;;;7.75;;
32096;SDS011;18610;49.916;8.284;2023-04-28T04:37:52;12.55;;;6.88;;
32096;SDS011;18610;49.916;8.284;2023-04-28T04:40:19;12.15;;;7.63;;
32096;SDS011;18610;49.916;8.284;2023-04-28T04:42:45;12.93;;;7.45;;
32096;SDS011;18610;49.916;8.284;2023-04-28T04:45:12;15.90;;;8.00;;
32096;SDS011;18610;49.916;8.284;2023-04-28T04:47:40;18.48;;;8.85;;
32096;SDS011;18610;49.916;8.284;2023-04-28T04:50:09;18.65;;;8.13;;
32096;SDS011;18610;49.916;8.284;2023-04-28T04:52:36;18.70;;;6.65;;
32096;SDS011;18610;49.916;8.284;2023-04-28T04:55:03;9.63;;;7.57;;
32096;SDS011;18610;49.916;8.284;2023-04-28T04:57:30;15.10;;;7.28;;
32096;SDS011;18610;49.916;8.284;2023-04-28T04:59:57;21.50;;;8.23;;
32096;SDS011;18610;49.916;8.284;2023-04-28T05:02:24;15.80;;;8.25;;
32096;SDS011;18610;49.916;8.284;2023-04-28T05:04:51;17.77;;;9.57;;
32096;SDS011;18610;49.916;8.284;2023-04-28T05:07:19;15.90;;;9.07;;
32096;SDS011;18610;49.916;8.284;2023-04-28T05:09:45;16.35;;;8.30;;
32096;SDS011;18610;49.916;8.284;2023-04-28T05:12:12;20.38;;;9.65;;
32096;SDS011;18610;49.916;8.284;2023-04-28T05:14:39;16.17;;;8.55;;
32096;SDS011;18610;49.916;8.284;2023-04-28T05:17:05;13.77;;;8.55;;
32096;SDS011;18610;49.916;8.284;2023-04-28T05:19:32;11.38;;;7.15;;
32096;SDS011;18610;49.916;8.284;2023-04-28T05:21:59;15.25;;;7.75;;
32096;SDS011;18610;49.916;8.284;2023-04-28T05:24:27;13.15;;;8.10;;
32096;SDS011;18610;49.916;8.284;2023-04-28T05:26:55;12.38;;;8.32;;
32096;SDS011;18610;49.916;8.284;2023-04-28T05:29:24;20.65;;;8.10;;
32096;SDS011;18610;49.916;8.284;2023-04-28T05:31:50;15.63;;;7.72;;
32096;SDS011;18610;49.916;8.284;2023-04-28T05:34:17;21.67;;;8.30;;
32096;SDS011;18610;49.916;8.284;2023-04-28T05:36:44;16.38;;;7.88;;
32096;SDS011;18610;49.916;8.284;2023-04-28T05:39:10;14.90;;;7.18;;
32096;SDS011;18610;49.916;8.284;2023-04-28T05:41:39;20.52;;;9.18;;
32096;SDS011;18610;49.916;8.284;2023-04-28T05:44:05;21.02;;;8.85;;
32096;SDS011;18610;49.916;8.284;2023-04-28T05:46:32;21.05;;;8.60;;
32096;SDS011;18610;49.916;8.284;2023-04-28T05:49:00;14.48;;;7.22;;
32096;SDS011;18610;49.916;8.284;2023-04-28T05:51:26;20.77;;;8.80;;
32096;SDS011;18610;49.916;8.284;2023-04-28T05:53:53;18.40;;;8.57;;
32096;SDS011;18610;49.916;8.284;2023-04-28T05:56:20;17.30;;;7.68;;
32096;SDS011;18610;49.916;8.284;2023-04-28T05:58:48;19.08;;;8.65;;
32096;SDS011;18610;49.916;8.284;2023-04-28T06:01:14;15.32;;;8.00;;
32096;SDS011;18610;49.916;8.284;2023-04-28T06:03:41;13.60;;;7.72;;
32096;SDS011;18610;49.916;8.284;2023-04-28T06:06:09;16.50;;;8.57;;
32096;SDS011;18610;49.916;8.284;2023-04-28T06:08:36;15.52;;;8.27;;
32096;SDS011;18610;49.916;8.284;2023-04-28T06:11:03;20.42;;;9.82;;
32096;SDS011;18610;49.916;8.284;2023-04-28T06:13:30;14.77;;;8.63;;
32096;SDS011;18610;49.916;8.284;2023-04-28T06:15:58;18.52;;;9.90;;
32096;SDS011;18610;49.916;8.284;2023-04-28T06:18:24;18.13;;;9.50;;
32096;SDS011;18610;49.916;8.284;2023-04-28T06:20:51;18.25;;;9.05;;
32096;SDS011;18610;49.916;8.284;2023-04-28T06:23:18;25.67;;;10.73;;
32096;SDS011;18610;49.916;8.284;2023-04-28T06:25:45;19.63;;;10.85;;
32096;SDS011;18610;49.916;8.284;2023-04-28T06:28:11;19.65;;;9.38;;
32096;SDS011;18610;49.916;8.284;2023-04-28T06:30:39;18.00;;;9.73;;
32096;SDS011;18610;49.916;8.284;2023-04-28T06:33:07;17.42;;;11.02;;
32096;SDS011;18610;49.916;8.284;2023-04-28T06:35:34;24.00;;;9.70;;
32096;SDS011;18610;49.916;8.284;2023-04-28T06:38:02;18.65;;;9.35;;
32096;SDS011;18610;49.916;8.284;2023-04-28T06:40:29;21.42;;;10.65;;
32096;SDS011;18610;49.916;8.284;2023-04-28T06:42:56;14.57;;;8.90;;
32096;SDS011;18610;49.916;8.284;2023-04-28T06:45:23;21.33;;;10.30;;
32096;SDS011;18610;49.916;8.284;2023-04-28T06:47:50;17.35;;;9.73;;
32096;SDS011;18610;49.916;8.284;2023-04-28T06:50:21;17.77;;;9.57;;
32096;SDS011;18610;49.916;8.284;2023-04-28T06:52:47;24.60;;;10.90;;
32096;SDS011;18610;49.916;8.284;2023-04-28T06:55:14;20.67;;;10.07;;
32096;SDS011;18610;49.916;8.284;2023-04-28T06:57:42;17.45;;;10.40;;
32096;SDS011;18610;49.916;8.284;2023-04-28T07:00:09;22.55;;;10.52;;
32096;SDS011;18610;49.916;8.284;2023-04-28T07:02:36;17.85;;;8.68;;
32096;SDS011;18610;49.916;8.284;2023-04-28T07:05:03;18.73;;;10.18;;
32096;SDS011;18610;49.916;8.284;2023-04-28T07:07:32;17.55;;;9.68;;
32096;SDS011;18610;49.916;8.284;2023-04-28T07:09:58;13.60;;;9.38;;
32096;SDS011;18610;49.916;8.284;2023-04-28T07:12:26;17.67;;;9.65;;
32096;SDS011;18610;49.916;8.284;2023-04-28T07:14:53;16.92;;;8.98;;
32096;SDS011;18610;49.916;8.284;2023-04-28T07:17:19;12.32;;;7.00;;
32096;SDS011;18610;49.916;8.284;2023-04-28T07:19:46;19.95;;;10.30;;
32096;SDS011;18610;49.916;8.284;2023-04-28T07:22:14;15.07;;;9.18;;
32096;SDS011;18610;49.916;8.284;2023-04-28T07:24:43;16.60;;;9.27;;
32096;SDS011;18610;49.916;8.284;2023-04-28T07:27:09;15.35;;;9.70;;
32096;SDS011;18610;49.916;8.284;2023-04-28T07:29:36;13.27;;;8.30;;
32096;SDS011;18610;49.916;8.284;2023-04-28T07:32:03;13.40;;;8.98;;
32096;SDS011;18610;49.916;8.284;2023-04-28T07:34:32;15.15;;;8.90;;
32096;SDS011;18610;49.916;8.284;2023-04-28T07:36:59;15.10;;;9.32;;
32096;SDS011;18610;49.916;8.284;2023-04-28T07:39:26;14.48;;;9.02;;
32096;SDS011;18610;49.916;8.284;2023-04-28T07:41:54;16.25;;;9.77;;
32096;SDS011;18610;49.916;8.284;2023-04-28T07:44:22;18.38;;;10.48;;
32096;SDS011;18610;49.916;8.284;2023-04-28T07:46:49;16.13;;;9.45;;
32096;SDS011;18610;49.916;8.284;2023-04-28T07:49:16;16.42;;;9.32;;
32096;SDS011;18610;49.916;8.284;2023-04-28T07:51:43;23.92;;;10.75;;
32096;SDS011;18610;49.916;8.284;2023-04-28T07:54:10;13.65;;;9.70;;
32096;SDS011;18610;49.916;8.284;2023-04-28T07:56:36;17.98;;;10.55;;
32096;SDS011;18610;49.916;8.284;2023-04-28T07:59:05;15.23;;;9.93;;
32096;SDS011;18610;49.916;8.284;2023-04-28T08:01:31;20.05;;;11.63;;
32096;SDS011;18610;49.916;8.284;2023-04-28T08:03:58;24.13;;;11.18;;
32096;SDS011;18610;49.916;8.284;2023-04-28T08:06:25;19.38;;;10.35;;
32096;SDS011;18610;49.916;8.284;2023-04-28T08:08:51;16.63;;;10.23;;
32096;SDS011;18610;49.916;8.284;2023-04-28T08:11:20;17.88;;;11.35;;
32096;SDS011;18610;49.916;8.284;2023-04-28T08:13:47;17.60;;;10.13;;
32096;SDS011;18610;49.916;8.284;2023-04-28T08:16:15;18.75;;;11.63;;
32096;SDS011;18610;49.916;8.284;2023-04-28T08:18:43;17.88;;;10.80;;
32096;SDS011;18610;49.916;8.284;2023-04-28T08:21:11;16.55;;;11.40;;
32096;SDS011;18610;49.916;8.284;2023-04-28T08:23:38;16.13;;;10.68;;
32096;SDS011;18610;49.916;8.284;2023-04-28T08:26:04;21.92;;;11.00;;
32096;SDS011;18610;49.916;8.284;2023-04-28T08:28:31;21.30;;;12.07;;
32096;SDS011;18610;49.916;8.284;2023-04-28T08:30:58;15.68;;;10.35;;
32096;SDS011;18610;49.916;8.284;2023-04-28T08:33:27;14.80;;;9.90;;
32096;SDS011;18610;49.916;8.284;2023-04-28T08:35:54;16.13;;;11.95;;
32096;SDS011;18610;49.916;8.284;2023-04-28T08:38:20;19.45;;;11.75;;
32096;SDS011;18610;49.916;8.284;2023-04-28T08:40:49;16.40;;;11.90;;
32096;SDS011;18610;49.916;8.284;2023-04-28T08:43:16;17.45;;;11.40;;
32096;SDS011;18610;49.916;8.284;2023-04-28T08:45:45;24.50;;;13.63;;
32096;SDS011;18610;49.916;8.284;2023-04-28T08:48:13;19.45;;;11.48;;
32096;SDS011;18610;49.916;8.284;2023-04-28T08:50:47;20.20;;;12.32;;
32096;SDS011;18610;49.916;8.284;2023-04-28T08:53:17;17.33;;;10.70;;
32096;SDS011;18610;49.916;8.284;2023-04-28T08:55:49;16.98;;;11.68;;
32096;SDS011;18610;49.916;8.284;2023-04-28T08:58:17;21.13;;;12.82;;
32096;SDS011;18610;49.916;8.284;2023-04-28T09:00:45;21.00;;;12.13;;
32096;SDS011;18610;49.916;8.284;2023-04-28T09:03:11;16.88;;;11.68;;
32096;SDS011;18610;49.916;8.284;2023-04-28T09:05:38;15.75;;;10.63;;
32096;SDS011;18610;49.916;8.284;2023-04-28T09:08:07;17.60;;;10.38;;
32096;SDS011;18610;49.916;8.284;2023-04-28T09:10:35;18.13;;;12.07;;
32096;SDS011;18610;49.916;8.284;2023-04-28T09:13:03;18.98;;;11.82;;
32096;SDS011;18610;49.916;8.284;2023-04-28T09:15:30;20.00;;;10.70;;
32096;SDS011;18610;49.916;8.284;2023-04-28T09:17:58;19.27;;;11.88;;
32096;SDS011;18610;49.916;8.284;2023-04-28T09:20:26;13.57;;;9.98;;
32096;SDS011;18610;49.916;8.284;2023-04-28T09:22:54;16.40;;;10.88;;
32096;SDS011;18610;49.916;8.284;2023-04-28T09:25:23;17.52;;;13.80;;
32096;SDS011;18610;49.916;8.284;2023-04-28T09:27:51;20.83;;;13.35;;
32096;SDS011;18610;49.916;8.284;2023-04-28T09:30:18;17.88;;;12.82;;
32096;SDS011;18610;49.916;8.284;2023-04-28T09:33:03;20.58;;;13.25;;
32096;SDS011;18610;49.916;8.284;2023-04-28T09:35:39;18.75;;;12.20;;
32096;SDS011;18610;49.916;8.284;2023-04-28T09:38:07;17.00;;;11.75;;
32096;SDS011;18610;49.916;8.284;2023-04-28T09:40:38;20.00;;;12.57;;
32096;SDS011;18610;49.916;8.284;2023-04-28T09:43:21;17.67;;;11.25;;
32096;SDS011;18610;49.916;8.284;2023-04-28T09:45:49;18.75;;;11.35;;
32096;SDS011;18610;49.916;8.284;2023-04-28T09:48:16;17.20;;;11.23;;
32096;SDS011;18610;49.916;8.284;2023-04-28T09:50:43;18.67;;;12.80;;
32096;SDS011;18610;49.916;8.284;2023-04-28T09:53:10;17.75;;;11.30;;
32096;SDS011;18610;49.916;8.284;2023-04-28T09:55:39;19.33;;;12.20;;
32096;SDS011;18610;49.916;8.284;2023-04-28T09:58:09;15.50;;;12.05;;
32096;SDS011;18610;49.916;8.284;2023-04-28T10:00:38;15.13;;;10.70;;
32096;SDS011;18610;49.916;8.284;2023-04-28T10:03:06;16.00;;;11.48;;
32096;SDS011;18610;49.916;8.284;2023-04-28T10:05:34;21.10;;;13.95;;
32096;SDS011;18610;49.916;8.284;2023-04-28T10:08:02;19.95;;;12.40;;
32096;SDS011;18610;49.916;8.284;2023-04-28T10:10:29;24.88;;;14.10;;
32096;SDS011;18610;49.916;8.284;2023-04-28T10:12:58;26.02;;;13.73;;
32096;SDS011;18610;49.916;8.284;2023-04-28T10:15:26;25.30;;;13.77;;
32096;SDS011;18610;49.916;8.284;2023-04-28T10:17:53;23.27;;;13.43;;
32096;SDS011;18610;49.916;8.284;2023-04-28T10:20:20;24.38;;;12.45;;
32096;SDS011;18610;49.916;8.284;2023-04-28T10:22:51;32.67;;;13.48;;
32096;SDS011;18610;49.916;8.284;2023-04-28T10:25:30;19.77;;;12.32;;
32096;SDS011;18610;49.916;8.284;2023-04-28T10:28:03;19.88;;;12.63;;
32096;SDS011;18610;49.916;8.284;2023-04-28T10:30:32;24.67;;;13.82;;
32096;SDS011;18610;49.916;8.284;2023-04-28T10:35:49;18.60;;;11.18;;
32096;SDS011;18610;49.916;8.284;2023-04-28T10:38:16;20.13;;;13.15;;
32096;SDS011;18610;49.916;8.284;2023-04-28T10:40:46;27.52;;;13.25;;
32096;SDS011;18610;49.916;8.284;2023-04-28T10:43:31;24.23;;;14.00;;
32096;SDS011;18610;49.916;8.284;2023-04-28T10:46:02;19.23;;;13.30;;
32096;SDS011;18610;49.916;8.284;2023-04-28T10:51:33;14.85;;;11.13;;
32096;SDS011;18610;49.916;8.284;2023-04-28T10:54:08;15.98;;;11.32;;
32096;SDS011;18610;49.916;8.284;2023-04-28T10:56:39;19.73;;;11.52;;
32096;SDS011;18610;49.916;8.284;2023-04-28T10:59:29;16.10;;;12.55;;
32096;SDS011;18610;49.916;8.284;2023-04-28T11:02:10;13.65;;;11.32;;
32096;SDS011;18610;49.916;8.284;2023-04-28T11:05:13;15.90;;;11.73;;
32096;SDS011;18610;49.916;8.284;2023-04-28T11:11:10;20.70;;;13.95;;
32096;SDS011;18610;49.916;8.284;2023-04-28T11:13:38;21.33;;;13.75;;
32096;SDS011;18610;49.916;8.284;2023-04-28T11:16:07;21.58;;;14.68;;
32096;SDS011;18610;49.916;8.284;2023-04-28T11:18:37;27.85;;;14.43;;
32096;SDS011;18610;49.916;8.284;2023-04-28T11:23:43;17.88;;;13.07;;
32096;SDS011;18610;49.916;8.284;2023-04-28T11:26:09;16.27;;;13.23;;
32096;SDS011;18610;49.916;8.284;2023-04-28T11:28:46;18.85;;;13.52;;
32096;SDS011;18610;49.916;8.284;2023-04-28T11:31:16;17.83;;;12.68;;
32096;SDS011;18610;49.916;8.284;2023-04-28T11:33:45;19.30;;;14.02;;
32096;SDS011;18610;49.916;8.284;2023-04-28T11:36:24;29.48;;;15.55;;
32096;SDS011;18610;49.916;8.284;2023-04-28T11:38:53;18.27;;;14.60;;
32096;SDS011;18610;49.916;8.284;2023-04-28T11:41:20;21.38;;;15.45;;
32096;SDS011;18610;49.916;8.284;2023-04-28T11:43:46;20.67;;;16.05;;
32096;SDS011;18610;49.916;8.284;2023-04-28T11:46:18;18.63;;;11.98;;
32096;SDS011;18610;49.916;8.284;2023-04-28T11:48:47;21.25;;;15.48;;
32096;SDS011;18610;49.916;8.284;2023-04-28T11:51:31;20.30;;;14.55;;
32096;SDS011;18610;49.916;8.284;2023-04-28T11:54:02;17.77;;;13.02;;
32096;SDS011;18610;49.916;8.284;2023-04-28T11:56:30;22.15;;;14.10;;
32096;SDS011;18610;49.916;8.284;2023-04-28T11:59:03;18.17;;;14.48;;
32096;SDS011;18610;49.916;8.284;2023-04-28T12:01:33;22.88;;;14.27;;
32096;SDS011;18610;49.916;8.284;2023-04-28T12:04:08;23.48;;;14.55;;
32096;SDS011;18610;49.916;8.284;2023-04-28T12:06:36;20.20;;;15.40;;
32096;SDS011;18610;49.916;8.284;2023-04-28T12:09:13;20.70;;;13.27;;
32096;SDS011;18610;49.916;8.284;2023-04-28T12:11:51;19.50;;;14.85;;
32096;SDS011;18610;49.916;8.284;2023-04-28T12:14:21;17.13;;;12.73;;
32096;SDS011;18610;49.916;8.284;2023-04-28T12:16:49;18.02;;;13.98;;
32096;SDS011;18610;49.916;8.284;2023-04-28T12:19:17;17.48;;;12.05;;
32096;SDS011;18610;49.916;8.284;2023-04-28T12:21:57;18.77;;;12.48;;
32096;SDS011;18610;49.916;8.284;2023-04-28T12:24:28;18.70;;;11.57;;
32096;SDS011;18610;49.916;8.284;2023-04-28T12:27:12;22.63;;;10.95;;
32096;SDS011;18610;49.916;8.284;2023-04-28T12:29:43;12.50;;;9.10;;
32096;SDS011;18610;49.916;8.284;2023-04-28T12:32:12;18.15;;;10.35;;
32096;SDS011;18610;49.916;8.284;2023-04-28T12:34:39;11.73;;;8.48;;
32096;SDS011;18610;49.916;8.284;2023-04-28T12:37:07;11.57;;;8.43;;
32096;SDS011;18610;49.916;8.284;2023-04-28T12:39:34;12.88;;;8.15;;
32096;SDS011;18610;49.916;8.284;2023-04-28T12:42:02;11.30;;;8.88;;
32096;SDS011;18610;49.916;8.284;2023-04-28T12:44:33;12.05;;;7.93;;
32096;SDS011;18610;49.916;8.284;2023-04-28T12:47:02;8.68;;;6.45;;
32096;SDS011;18610;49.916;8.284;2023-04-28T12:49:31;10.23;;;7.72;;
32096;SDS011;18610;49.916;8.284;2023-04-28T12:51:58;10.07;;;8.88;;
32096;SDS011;18610;49.916;8.284;2023-04-28T12:54:25;13.95;;;9.45;;
32096;SDS011;18610;49.916;8.284;2023-04-28T12:56:52;14.57;;;9.68;;
32096;SDS011;18610;49.916;8.284;2023-04-28T12:59:19;10.02;;;7.95;;
32096;SDS011;18610;49.916;8.284;2023-04-28T13:01:46;9.63;;;8.18;;
32096;SDS011;18610;49.916;8.284;2023-04-28T13:04:13;10.95;;;8.85;;
32096;SDS011;18610;49.916;8.284;2023-04-28T13:06:41;13.55;;;7.65;;
32096;SDS011;18610;49.916;8.284;2023-04-28T13:09:08;10.18;;;8.82;;
32096;SDS011;18610;49.916;8.284;2023-04-28T13:11:36;9.25;;;7.60;;
32096;SDS011;18610;49.916;8.284;2023-04-28T13:14:03;13.20;;;10.10;;
32096;SDS011;18610;49.916;8.284;2023-04-28T13:16:29;16.55;;;9.50;;
32096;SDS011;18610;49.916;8.284;2023-04-28T13:18:56;13.25;;;10.27;;
32096;SDS011;18610;49.916;8.284;2023-04-28T13:21:23;11.07;;;9.27;;
32096;SDS011;18610;49.916;8.284;2023-04-28T13:23:52;14.20;;;8.90;;
32096;SDS011;18610;49.916;8.284;2023-04-28T13:26:19;9.90;;;7.97;;
32096;SDS011;18610;49.916;8.284;2023-04-28T13:28:48;11.00;;;8.48;;
32096;SDS011;18610;49.916;8.284;2023-04-28T13:31:15;10.57;;;8.82;;
32096;SDS011;18610;49.916;8.284;2023-04-28T13:33:42;10.77;;;8.35;;
32096;SDS011;18610;49.916;8.284;2023-04-28T13:36:09;9.18;;;8.25;;
32096;SDS011;18610;49.916;8.284;2023-04-28T13:38:36;13.18;;;8.50;;
32096;SDS011;18610;49.916;8.284;2023-04-28T13:41:04;11.43;;;7.35;;
32096;SDS011;18610;49.916;8.284;2023-04-28T13:43:31;10.38;;;8.50;;
32096;SDS011;18610;49.916;8.284;2023-04-28T13:45:58;10.63;;;9.32;;
32096;SDS011;18610;49.916;8.284;2023-04-28T13:48:25;9.70;;;8.30;;
32096;SDS011;18610;49.916;8.284;2023-04-28T13:50:52;11.30;;;9.40;;
32096;SDS011;18610;49.916;8.284;2023-04-28T13:53:19;14.02;;;10.40;;
32096;SDS011;18610;49.916;8.284;2023-04-28T13:55:47;10.45;;;9.45;;
32096;SDS011;18610;49.916;8.284;2023-04-28T13:58:16;10.02;;;9.02;;
32096;SDS011;18610;49.916;8.284;2023-04-28T14:00:43;11.18;;;8.63;;
32096;SDS011;18610;49.916;8.284;2023-04-28T14:03:10;8.77;;;7.40;;
32096;SDS011;18610;49.916;8.284;2023-04-28T14:05:40;7.15;;;6.15;;
32096;SDS011;18610;49.916;8.284;2023-04-28T14:08:07;8.57;;;5.75;;
32096;SDS011;18610;49.916;8.284;2023-04-28T14:10:34;6.57;;;5.65;;
32096;SDS011;18610;49.916;8.284;2023-04-28T14:13:01;7.03;;;5.05;;
32096;SDS011;18610;49.916;8.284;2023-04-28T14:15:29;7.80;;;6.30;;
32096;SDS011;18610;49.916;8.284;2023-04-28T14:17:56;9.55;;;7.00;;
32096;SDS011;18610;49.916;8.284;2023-04-28T14:20:23;11.43;;;7.72;;
32096;SDS011;18610;49.916;8.284;2023-04-28T14:22:50;6.60;;;5.95;;
32096;SDS011;18610;49.916;8.284;2023-04-28T14:25:17;8.20;;;6.45;;
32096;SDS011;18610;49.916;8.284;2023-04-28T14:27:44;8.35;;;7.55;;
32096;SDS011;18610;49.916;8.284;2023-04-28T14:30:12;9.43;;;8.23;;
32096;SDS011;18610;49.916;8.284;2023-04-28T14:32:40;6.68;;;6.07;;
32096;SDS011;18610;49.916;8.284;2023-04-28T14:35:08;7.10;;;6.40;;
32096;SDS011;18610;49.916;8.284;2023-04-28T14:37:36;5.60;;;4.25;;
32096;SDS011;18610;49.916;8.284;2023-04-28T14:40:03;6.95;;;3.35;;
32096;SDS011;18610;49.916;8.284;2023-04-28T14:42:32;2.90;;;2.60;;
32096;SDS011;18610;49.916;8.284;2023-04-28T14:45:00;4.35;;;2.70;;
32096;SDS011;18610;49.916;8.284;2023-04-28T14:47:27;4.57;;;2.60;;